createdAt,value
2022-08-05T00:13:06.709Z,2.33
2022-08-05T00:28:21.139Z,2.27
2022-08-05T00:43:31.543Z,2.13
2022-08-05T00:58:48.920Z,2.20
2022-08-05T01:13:57.983Z,2.10
2022-08-05T01:29:04.257Z,2.57
2022-08-05T01:44:09.950Z,1.97
2022-08-05T01:59:12.757Z,2.00
2022-08-05T02:14:17.046Z,2.00
2022-08-05T02:29:21.558Z,2.17
2022-08-05T02:44:25.848Z,2.00
2022-08-05T02:59:27.777Z,2.00
2022-08-05T03:14:29.354Z,1.90
2022-08-05T03:29:45.551Z,2.13
2022-08-05T03:44:53.621Z,2.33
2022-08-05T03:59:55.473Z,3.50
2022-08-05T04:14:57.566Z,2.00
2022-08-05T04:30:00.002Z,2.67
2022-08-05T04:45:05.559Z,1.60
2022-08-05T05:00:07.265Z,2.40
2022-08-05T05:15:10.828Z,2.23
2022-08-05T05:30:28.808Z,2.00
2022-08-05T05:45:31.596Z,1.70
2022-08-05T06:00:34.302Z,2.00
2022-08-05T06:16:30.435Z,1.80
2022-08-05T06:30:58.834Z,1.90
2022-08-05T06:46:06.809Z,2.23
2022-08-05T07:01:08.883Z,2.20
2022-08-05T07:17:56.321Z,2.87
2022-08-05T07:31:41.083Z,2.60
2022-08-05T07:46:56.297Z,2.97
2022-08-05T08:01:58.089Z,3.13
2022-08-05T08:16:59.655Z,2.83
2022-08-05T08:32:01.155Z,3.60
2022-08-05T08:47:02.643Z,2.67
2022-08-05T09:02:04.206Z,3.13
2022-08-05T09:17:08.171Z,2.40
2022-08-05T09:32:42.205Z,2.70
2022-08-05T09:47:36.470Z,1.80
2022-08-05T10:02:50.732Z,2.20
2022-08-05T10:17:56.761Z,2.27
2022-08-05T10:33:02.100Z,1.90
2022-08-05T10:48:30.693Z,1.80
2022-08-05T11:03:27.065Z,1.97
2022-08-05T11:18:30.037Z,1.30
2022-08-05T11:33:34.741Z,1.30
2022-08-05T11:48:47.651Z,2.33
2022-08-05T12:03:55.997Z,1.57
2022-08-05T12:18:57.797Z,1.80
2022-08-05T12:33:59.296Z,1.73
2022-08-05T12:49:05.726Z,2.17
2022-08-05T13:04:19.114Z,1.13
2022-08-05T13:19:22.429Z,1.20
2022-08-05T13:34:26.220Z,1.10
2022-08-05T13:49:27.883Z,1.00
2022-08-05T14:04:29.364Z,2.03
2022-08-05T14:19:33.371Z,0.97
2022-08-05T14:34:56.978Z,1.10
2022-08-05T14:50:03.146Z,1.60
2022-08-05T15:05:13.522Z,1.40
2022-08-05T15:20:19.055Z,1.10
2022-08-05T15:35:21.868Z,0.90
2022-08-05T15:50:25.195Z,1.50
2022-08-05T16:05:28.145Z,1.80
2022-08-05T16:20:30.082Z,1.97
2022-08-05T16:35:42.041Z,1.00
2022-08-05T16:50:44.271Z,1.27
2022-08-05T17:05:48.974Z,1.93
2022-08-05T17:20:54.969Z,1.67
2022-08-05T17:36:07.424Z,2.07
2022-08-05T17:51:12.578Z,1.40
2022-08-05T18:06:15.386Z,1.10
2022-08-05T18:21:20.000Z,1.30
2022-08-05T18:36:28.000Z,1.20
2022-08-05T18:52:04.500Z,1.33
2022-08-05T19:06:51.337Z,0.80
2022-08-05T19:21:54.972Z,1.00
2022-08-05T19:36:56.453Z,1.43
2022-08-05T19:52:08.646Z,1.43
2022-08-05T20:07:47.879Z,2.33
2022-08-05T20:22:41.508Z,1.10
2022-08-05T20:38:08.080Z,1.20
2022-08-05T20:53:07.298Z,1.97
2022-08-05T21:08:17.894Z,1.40
2022-08-05T21:23:19.391Z,1.30
2022-08-05T21:38:23.999Z,1.00
2022-08-05T21:53:27.650Z,1.73
2022-08-05T22:08:29.428Z,1.40
2022-08-05T22:24:01.854Z,1.40
2022-08-05T22:38:55.563Z,1.40
2022-08-05T22:53:57.160Z,1.67
2022-08-05T23:09:27.212Z,1.00
2022-08-05T23:24:20.127Z,1.17
2022-08-05T23:39:32.039Z,1.23
2022-08-05T23:54:45.418Z,1.77
